Date,TemperatureHighF,TemperatureAvgF,TemperatureLowF,DewpointHighF,DewpointAvgF,DewpointLowF,HumidityHigh,HumidityAvg,HumidityLow,PressureMaxIn,PressureMinIn,WindSpeedMaxMPH,WindSpeedAvgMPH,GustSpeedMaxMPH,PrecipitationSumIn
2013-8-1,82,62,48,51,47,42,90,62,25,30.01,29.90,1,0,7,0.00
2013-8-2,82,60,45,56,50,42,92,72,40,29.91,29.84,2,0,7,0.00
2013-8-3,74,59,52,56,52,50,91,79,51,29.93,29.86,2,0,7,0.00
2013-8-4,76,60,53,57,52,49,92,77,48,29.95,29.88,2,0,6,0.00
2013-8-5,81,61,50,57,51,47,91,73,40,29.96,29.86,2,0,7,0.00
2013-8-6,75,60,52,57,52,49,90,77,51,30.00,29.90,1,0,6,0.00
2013-8-7,77,63,55,56,53,50,92,73,47,30.03,29.95,2,0,6,0.00
2013-8-8,77,61,54,58,53,49,91,76,46,29.98,29.87,1,0,7,0.00
2013-8-9,78,62,53,57,53,49,87,73,47,29.93,29.85,3,0,6,0.00
2013-8-10,84,65,55,59,55,52,90,72,42,29.97,29.91,2,0,7,0.00
2013-8-11,84,64,51,59,54,48,92,73,41,29.96,29.86,1,0,5,0.00
2013-8-12,85,63,49,58,52,46,93,72,37,29.93,29.86,1,0,6,0.00
2013-8-13,89,66,48,56,51,46,93,65,27,29.92,29.83,1,0,5,0.00
2013-8-14,90,66,48,58,49,38,87,63,17,29.91,29.84,3,0,7,0.00
2013-8-15,95,70,54,64,58,51,92,70,29,29.89,29.82,3,0,7,0.00
2013-8-16,94,72,57,64,57,50,92,65,30,29.91,29.84,2,0,7,0.00
2013-8-17,86,66,54,59,53,47,81,65,34,29.93,29.82,2,0,12,0.00
2013-8-18,94,68,52,60,54,47,92,67,20,29.84,29.71,1,0,5,0.00
2013-8-19,88,67,55,59,55,52,90,69,32,29.86,29.74,3,0,6,0.00
2013-8-20,80,63,55,56,54,51,91,74,38,29.86,29.78,2,0,6,0.00
2013-8-21,82,63,54,55,52,50,90,71,33,29.88,29.78,1,0,6,0.00
2013-8-22,82,63,49,56,52,46,92,69,36,29.90,29.80,1,0,5,0.00
2013-8-23,85,64,48,57,51,45,91,68,28,29.87,29.74,1,0,10,0.00
2013-8-24,86,65,49,58,53,46,91,68,35,29.83,29.76,2,0,12,0.00
2013-8-25,82,65,56,59,55,52,91,72,41,29.89,29.82,2,0,10,0.00
2013-8-26,87,67,58,59,54,48,86,66,37,29.93,29.81,2,0,10,0.00
2013-8-27,90,65,49,55,50,45,88,63,28,29.84,29.73,2,0,7,0.00
2013-8-28,91,68,51,60,54,48,92,67,27,29.88,29.77,2,0,6,0.00
2013-8-29,90,69,52,63,57,49,93,70,37,29.97,29.87,2,0,4,0.00
2013-8-30,98,72,55,61,54,49,92,60,21,29.96,29.83,2,0,8,0.00
2013-8-31,92,71,55,55,50,46,78,53,21,29.89,29.81,2,0,9,0.00